Time;durP1;ratioP1;P1;durP2;ratioP2;P2;SDS_P1;SDS_P2;PMS_P1;PMS_P2;Temp;Humidity;BMP_temperature;BMP_pressure;BME280_temperature;BME280_humidity;BME280_pressure;Samples;Min_cycle;Max_cycle;Signal;HPM_P1;HPM_P2
2023/04/18 00:03:16;;;;;;;4.92;3.58;;;11.40;99.90;;;;;;1920349;72;22324;-82
2023/04/18 00:08:47;;;;;;;4.83;3.75;;;11.40;99.90;;;;;;1937425;72;22087;-79
2023/04/18 00:14:23;;;;;;;3.58;3.22;;;11.50;99.90;;;;;;1940464;72;22151;-79
2023/04/18 00:19:55;;;;;;;5.00;3.15;;;11.50;99.90;;;;;;1935653;72;22125;-81
2023/04/18 00:22:46;;;;;;;5.65;3.40;;;11.50;99.90;;;;;;1898586;75;21161;-81
2023/04/18 00:28:16;;;;;;;3.90;3.10;;;11.50;99.90;;;;;;1936100;72;22308;-79
2023/04/18 00:33:46;;;;;;;4.30;2.98;;;11.40;99.90;;;;;;1947260;72;22178;-79
2023/04/18 00:36:38;;;;;;;4.15;3.50;;;11.40;99.90;;;;;;1923035;73;21195;-82
2023/04/18 00:39:29;;;;;;;4.60;3.33;;;11.40;99.90;;;;;;1918237;73;21063;-82
2023/04/18 00:42:21;;;;;;;3.67;3.10;;;11.40;99.90;;;;;;1936533;73;21193;-82
2023/04/18 00:45:12;;;;;;;5.85;3.70;;;11.30;99.90;;;;;;1931709;73;21083;-80
2023/04/18 00:48:05;;;;;;;3.22;2.92;;;11.30;99.90;;;;;;1928196;73;21133;-81
2023/04/18 00:50:59;;;;;;;3.50;3.17;;;11.20;99.90;;;;;;1922644;73;21180;-80
2023/04/18 00:53:50;;;;;;;4.72;3.30;;;11.20;99.90;;;;;;1917011;75;21086;-80
2023/04/18 00:59:20;;;;;;;4.20;2.85;;;11.00;99.90;;;;;;1941317;72;22205;-81
2023/04/18 01:02:12;;;;;;;5.28;3.77;;;11.10;99.90;;;;;;1906793;75;21718;-80
2023/04/18 01:05:03;;;;;;;5.12;3.65;;;11.00;99.90;;;;;;1916633;75;21621;-80
2023/04/18 01:10:37;;;;;;;4.42;3.40;;;11.00;99.90;;;;;;1924620;72;22193;-79
2023/04/18 01:13:28;;;;;;;3.50;3.20;;;10.90;99.90;;;;;;1909921;75;21083;-79
2023/04/18 01:18:59;;;;;;;5.10;3.27;;;10.80;99.90;;;;;;1941702;72;22343;-81
2023/04/18 01:21:52;;;;;;;3.58;3.10;;;10.80;99.90;;;;;;1927673;73;21180;-81
2023/04/18 01:27:29;;;;;;;3.77;2.95;;;10.80;99.90;;;;;;1935546;72;22193;-79
2023/04/18 01:30:22;;;;;;;5.87;3.40;;;10.80;99.90;;;;;;1890645;75;21157;-81
2023/04/18 01:33:14;;;;;;;4.78;3.15;;;10.80;99.90;;;;;;1898402;75;21058;-81
2023/04/18 01:36:06;;;;;;;5.22;3.50;;;10.80;99.90;;;;;;1832405;77;21087;-80
2023/04/18 01:41:38;;;;;;;4.05;3.60;;;10.70;99.90;;;;;;1934728;72;22278;-81
2023/04/18 01:47:09;;;;;;;6.05;3.83;;;10.70;99.90;;;;;;1959347;72;22180;-79
2023/04/18 01:50:00;;;;;;;5.12;3.12;;;10.70;99.90;;;;;;1916927;73;21136;-79
2023/04/18 01:52:52;;;;;;;3.70;3.00;;;10.70;99.90;;;;;;1947559;73;21114;-79
2023/04/18 01:58:23;;;;;;;4.17;3.42;;;10.70;99.90;;;;;;1939651;72;22238;-79
2023/04/18 02:03:55;;;;;;;3.67;3.10;;;10.80;99.90;;;;;;1945733;72;22264;-79
2023/04/18 02:06:46;;;;;;;4.40;3.30;;;10.70;99.90;;;;;;1910417;75;21203;-81
2023/04/18 02:09:38;;;;;;;4.22;3.60;;;10.70;99.90;;;;;;1893133;75;21099;-81
2023/04/18 02:15:10;;;;;;;4.00;3.05;;;10.70;99.90;;;;;;1921638;72;22621;-79
2023/04/18 02:20:42;;;;;;;3.70;2.87;;;10.60;99.90;;;;;;1944389;72;22532;-79
2023/04/18 02:26:15;;;;;;;3.65;3.30;;;10.50;99.90;;;;;;1953451;72;22203;-79
2023/04/18 02:32:15;;;;;;;4.20;3.33;;;10.30;99.90;;;;;;1962214;71;22678;-79
2023/04/18 02:35:08;;;;;;;3.80;3.40;;;10.30;99.90;;;;;;1944041;73;21155;-79
2023/04/18 02:37:59;;;;;;;4.78;3.45;;;10.30;99.90;;;;;;2003482;70;21110;-79
2023/04/18 02:40:51;;;;;;;4.33;3.02;;;10.40;99.90;;;;;;2012942;70;21077;-79
2023/04/18 02:43:43;;;;;;;4.33;3.52;;;10.40;99.90;;;;;;2012112;70;21110;-82
2023/04/18 02:49:23;;;;;;;4.03;3.47;;;10.50;99.90;;;;;;1937024;72;22159;-81
2023/04/18 02:52:15;;;;;;;4.00;3.60;;;10.50;99.90;;;;;;1909698;75;21098;-81
2023/04/18 02:55:08;;;;;;;4.83;3.87;;;10.50;99.90;;;;;;1909188;75;21189;-80
2023/04/18 02:58:01;;;;;;;5.15;3.62;;;10.50;99.90;;;;;;1915954;75;21141;-80
2023/04/18 03:03:34;;;;;;;4.33;3.70;;;10.40;99.90;;;;;;1935562;72;22645;-79
2023/04/18 03:09:08;;;;;;;4.92;3.80;;;10.40;99.90;;;;;;1935414;72;22338;-81
2023/04/18 03:14:48;;;;;;;4.58;3.55;;;10.50;99.90;;;;;;1935628;72;22656;-81
2023/04/18 03:17:39;;;;;;;4.90;3.60;;;10.40;99.90;;;;;;1938150;73;21100;-81
2023/04/18 03:20:32;;;;;;;4.33;3.20;;;10.40;99.90;;;;;;1927834;73;21111;-81
2023/04/18 03:26:08;;;;;;;3.80;3.35;;;10.50;99.90;;;;;;1949833;72;22252;-79
2023/04/18 03:29:02;;;;;;;4.33;3.60;;;10.40;99.90;;;;;;1932373;73;21506;-80
2023/04/18 03:34:32;;;;;;;4.12;3.33;;;10.40;99.90;;;;;;1949476;72;23259;-81
2023/04/18 03:40:05;;;;;;;6.95;3.40;;;10.50;99.90;;;;;;1936090;72;22229;-80
2023/04/18 03:42:56;;;;;;;3.60;3.30;;;10.50;99.90;;;;;;1906110;75;21143;-80
2023/04/18 03:45:49;;;;;;;3.30;2.37;;;10.60;99.90;;;;;;1912751;74;21462;-80
2023/04/18 03:48:41;;;;;;;2.62;2.20;;;10.70;99.90;;;;;;1890149;74;21113;-80
2023/04/18 03:54:14;;;;;;;3.30;2.25;;;10.80;99.90;;;;;;1943223;72;22378;-79
2023/04/18 03:59:45;;;;;;;2.55;1.95;;;10.80;99.90;;;;;;1940933;72;22230;-79
2023/04/18 04:02:38;;;;;;;2.52;1.80;;;10.80;99.90;;;;;;1901729;73;21146;-81
2023/04/18 04:08:09;;;;;;;2.98;2.17;;;10.80;99.90;;;;;;1930300;72;22188;-79
2023/04/18 04:13:40;;;;;;;3.47;1.98;;;10.80;99.90;;;;;;1933859;72;22172;-79
2023/04/18 04:16:32;;;;;;;3.37;1.95;;;10.70;99.90;;;;;;1878673;74;21267;-79
2023/04/18 04:22:05;;;;;;;2.72;1.90;;;10.80;99.90;;;;;;1930085;72;22186;-80
2023/04/18 04:24:57;;;;;;;3.90;1.80;;;10.80;99.90;;;;;;1877114;74;21113;-80
2023/04/18 04:27:52;;;;;;;2.55;2.00;;;10.80;99.90;;;;;;1883608;75;21194;-80
2023/04/18 04:33:27;;;;;;;2.87;2.10;;;10.70;99.90;;;;;;1925561;72;22273;-81
2023/04/18 04:36:26;;;;;;;2.35;1.60;;;10.70;99.90;;;;;;1904494;75;21678;-80
2023/04/18 04:39:17;;;;;;;1.72;1.60;;;10.70;99.90;;;;;;1882748;75;21133;-80
2023/04/18 04:42:11;;;;;;;2.33;1.90;;;10.60;99.90;;;;;;1901120;75;21150;-81
2023/04/18 04:45:04;;;;;;;2.12;1.90;;;10.70;99.90;;;;;;1901678;75;21212;-80
2023/04/18 04:47:56;;;;;;;2.47;1.47;;;10.70;99.90;;;;;;1883737;75;21110;-80
2023/04/18 04:53:33;;;;;;;2.52;1.90;;;10.70;99.90;;;;;;1914133;72;28110;-95
2023/04/18 04:56:25;;;;;;;2.35;1.67;;;10.90;99.90;;;;;;1876447;76;21056;-92
2023/04/18 04:59:18;;;;;;;1.92;1.65;;;10.90;99.90;;;;;;1875572;76;21073;-92
2023/04/18 05:02:10;;;;;;;3.20;1.92;;;10.90;99.90;;;;;;1875325;76;21043;-93
2023/04/18 05:05:02;;;;;;;4.10;1.90;;;10.90;99.90;;;;;;1873610;76;21090;-92
2023/04/18 05:07:54;;;;;;;2.12;1.92;;;10.90;99.90;;;;;;1873856;76;21174;-93
2023/04/18 05:10:46;;;;;;;3.62;2.20;;;10.90;99.90;;;;;;1874255;76;21131;-94
2023/04/18 05:13:39;;;;;;;2.12;1.82;;;10.90;99.90;;;;;;1888504;73;21058;-93
2023/04/18 05:16:31;;;;;;;2.20;2.00;;;10.90;99.90;;;;;;1891406;76;21129;-95
2023/04/18 05:19:24;;;;;;;3.52;2.10;;;10.90;99.90;;;;;;1891217;76;21106;-93
2023/04/18 05:22:17;;;;;;;2.65;2.10;;;10.80;99.90;;;;;;1885686;76;21064;-92
2023/04/18 05:25:11;;;;;;;3.08;1.90;;;10.80;99.90;;;;;;1899851;75;21137;-95
2023/04/18 05:28:04;;;;;;;2.40;2.20;;;10.90;99.90;;;;;;1903078;75;21119;-94
2023/04/18 05:31:00;;;;;;;2.75;2.30;;;10.90;99.90;;;;;;1873356;76;21092;-92
2023/04/18 05:33:50;;;;;;;2.90;2.00;;;10.90;99.90;;;;;;1873344;76;21112;-93
2023/04/18 05:36:43;;;;;;;2.67;2.05;;;10.90;99.90;;;;;;1873229;76;21133;-93
2023/04/18 05:39:34;;;;;;;1.70;1.60;;;10.90;99.90;;;;;;1874617;76;21105;-93
2023/04/18 05:42:26;;;;;;;2.60;2.02;;;10.90;99.90;;;;;;1873853;76;21557;-93
2023/04/18 05:45:18;;;;;;;2.70;2.00;;;10.90;99.90;;;;;;1873314;76;21605;-93
2023/04/18 05:48:10;;;;;;;2.22;1.90;;;11.00;99.90;;;;;;1873280;76;21112;-94
2023/04/18 06:43:12;;;;;;;3.40;2.55;;;11.40;99.90;;;;;;1940262;72;27993;-92
2023/04/18 06:46:04;;;;;;;3.12;2.60;;;11.70;99.90;;;;;;1922398;74;21091;-91
2023/04/18 06:48:56;;;;;;;2.50;2.30;;;11.60;99.90;;;;;;1917050;74;21336;-92
2023/04/18 06:51:48;;;;;;;5.72;2.70;;;11.60;99.90;;;;;;1905217;75;21150;-92
2023/04/18 06:54:39;;;;;;;3.67;2.87;;;11.60;99.90;;;;;;1905434;75;21180;-91
2023/04/18 06:57:31;;;;;;;3.37;2.72;;;11.60;99.90;;;;;;1905215;75;21191;-93
2023/04/18 07:00:23;;;;;;;4.50;3.12;;;11.60;99.90;;;;;;1905428;75;21103;-94
2023/04/18 07:03:15;;;;;;;3.12;2.47;;;11.70;99.90;;;;;;1906756;74;21141;-92
2023/04/18 07:08:58;;;;;;;4.70;3.47;;;11.70;99.90;;;;;;1945544;72;22213;-92
2023/04/18 07:11:49;;;;;;;2.80;2.35;;;11.70;99.90;;;;;;1925371;73;21105;-92
2023/04/18 07:14:41;;;;;;;3.72;2.50;;;11.70;99.90;;;;;;1934566;73;21119;-91
2023/04/18 07:17:33;;;;;;;4.08;3.08;;;11.70;99.90;;;;;;1919085;75;21058;-92
2023/04/18 07:20:24;;;;;;;3.50;2.77;;;11.70;99.90;;;;;;1917806;75;21047;-91
2023/04/18 07:23:16;;;;;;;4.53;3.60;;;11.80;99.90;;;;;;1929647;73;21098;-93
2023/04/18 07:26:08;;;;;;;4.37;2.98;;;11.80;99.90;;;;;;1918561;75;21098;-91
2023/04/18 07:29:02;;;;;;;4.45;2.98;;;11.90;99.90;;;;;;1917559;75;21107;-91
2023/04/18 07:31:53;;;;;;;6.12;3.42;;;12.00;99.90;;;;;;1923888;73;21159;-92
2023/04/18 07:34:46;;;;;;;4.42;2.85;;;12.20;99.90;;;;;;1927611;73;21120;-92
2023/04/18 07:37:39;;;;;;;5.87;3.52;;;12.30;99.90;;;;;;1917413;75;21137;-91
2023/04/18 07:40:30;;;;;;;4.67;2.83;;;12.30;99.90;;;;;;1940456;73;21142;-91
2023/04/18 07:43:22;;;;;;;6.72;3.52;;;12.40;99.90;;;;;;1941089;73;21221;-91
2023/04/18 07:46:14;;;;;;;5.30;2.98;;;12.50;99.90;;;;;;1917900;75;21127;-92
2023/04/18 07:49:05;;;;;;;4.50;2.80;;;12.60;99.90;;;;;;1940068;73;21273;-92
2023/04/18 07:51:59;;;;;;;4.97;3.12;;;12.80;99.90;;;;;;1917028;75;21083;-91
2023/04/18 07:54:50;;;;;;;4.47;3.10;;;12.90;99.90;;;;;;1928195;73;21093;-90
2023/04/18 07:57:49;;;;;;;2.65;2.45;;;13.00;99.90;;;;;;1933506;74;21094;-92
2023/04/18 08:00:41;;;;;;;3.58;2.90;;;13.10;99.90;;;;;;1932792;73;21107;-91
2023/04/18 08:06:18;;;;;;;3.35;2.60;;;13.50;99.90;;;;;;1947231;72;22195;-92
2023/04/18 08:09:11;;;;;;;3.17;2.37;;;13.60;99.90;;;;;;1918014;73;21055;-92
2023/04/18 08:12:03;;;;;;;3.87;2.47;;;13.80;99.90;;;;;;1917513;75;21155;-91
2023/04/18 08:14:55;;;;;;;3.62;2.62;;;14.10;99.90;;;;;;1929941;73;21051;-92
2023/04/18 08:17:48;;;;;;;4.35;2.65;;;14.20;99.90;;;;;;1929674;73;21350;-92
2023/04/18 08:23:27;;;;;;;2.87;2.67;;;14.30;99.90;;;;;;1947391;72;22183;-94
2023/04/18 08:29:03;;;;;;;2.58;2.37;;;14.30;99.90;;;;;;1954502;72;22162;-93
2023/04/18 08:31:55;;;;;;;4.42;2.90;;;14.40;99.90;;;;;;1895508;74;21153;-91
2023/04/18 08:34:46;;;;;;;3.27;2.33;;;14.50;99.90;;;;;;1914596;75;21087;-93
2023/04/18 08:37:39;;;;;;;3.08;2.60;;;14.60;99.90;;;;;;1884422;76;21161;-94
2023/04/18 08:40:30;;;;;;;2.90;2.45;;;14.70;99.90;;;;;;1900103;75;21094;-92
2023/04/18 08:43:24;;;;;;;3.67;2.72;;;14.60;99.90;;;;;;1899575;75;21152;-93
2023/04/18 08:46:17;;;;;;;5.62;2.83;;;14.80;99.90;;;;;;1897691;75;21132;-92
2023/04/18 08:49:10;;;;;;;3.30;2.70;;;14.70;99.90;;;;;;1901348;75;21100;-91
2023/04/18 08:52:04;;;;;;;3.55;3.12;;;14.70;99.90;;;;;;1902749;75;21227;-92
2023/04/18 08:54:57;;;;;;;4.30;2.98;;;14.90;99.90;;;;;;1896278;75;21174;-92
2023/04/18 09:00:29;;;;;;;4.15;2.60;;;14.70;99.90;;;;;;1937460;72;22218;-93
2023/04/18 09:03:38;;;;;;;3.12;2.77;;;14.90;99.90;;;;;;1890486;75;21114;-91
2023/04/18 09:06:32;;;;;;;3.02;2.72;;;14.90;99.90;;;;;;1889077;75;21120;-91
2023/04/18 09:09:26;;;;;;;3.12;2.83;;;14.80;99.90;;;;;;1899459;75;21091;-92
2023/04/18 09:12:21;;;;;;;3.83;2.60;;;14.90;99.90;;;;;;1884082;75;21147;-93
2023/04/18 09:18:33;;;;;;;5.42;2.80;;;15.00;99.90;;;;;;1996164;71;22178;-92
2023/04/18 09:21:31;;;;;;;3.10;2.80;;;15.00;99.90;;;;;;1967481;72;21112;-91
2023/04/18 09:24:25;;;;;;;3.60;2.67;;;14.90;99.90;;;;;;2036467;69;21085;-93
2023/04/18 09:27:17;;;;;;;4.30;3.20;;;14.90;99.90;;;;;;2044158;69;21121;-90
2023/04/18 09:30:11;;;;;;;2.85;2.50;;;15.00;99.90;;;;;;2039377;69;21124;-91
2023/04/18 09:37:07;;;;;;;4.10;3.08;;;15.00;99.90;;;;;;2057467;68;22098;-94
2023/04/18 09:39:59;;;;;;;3.77;2.60;;;15.00;99.90;;;;;;2012153;70;21146;-92
2023/04/18 09:45:37;;;;;;;4.92;2.87;;;15.00;99.90;;;;;;1941338;72;22654;-93
2023/04/18 09:48:29;;;;;;;5.20;3.67;;;15.10;99.90;;;;;;1939671;73;21148;-92
2023/04/18 09:54:00;;;;;;;5.22;3.17;;;15.20;99.90;;;;;;1935550;72;22150;-92
2023/04/18 09:56:55;;;;;;;4.80;3.20;;;15.20;99.90;;;;;;1896304;75;21192;-92
2023/04/18 09:59:50;;;;;;;5.65;2.92;;;15.20;99.90;;;;;;1885059;75;21055;-94
2023/04/18 10:02:59;;;;;;;3.45;3.15;;;15.30;99.90;;;;;;1895407;75;21624;-93
2023/04/18 10:05:59;;;;;;;3.80;3.17;;;15.40;99.90;;;;;;1885517;75;21169;-92
2023/04/18 10:11:40;;;;;;;3.08;2.77;;;15.50;99.90;;;;;;1939448;73;22184;-92
2023/04/18 10:17:53;;;;;;;3.90;3.17;;;15.60;99.90;;;;;;1976811;71;22141;-93
2023/04/18 10:23:39;;;;;;;4.25;3.12;;;15.80;99.90;;;;;;1952610;72;22172;-92
2023/04/18 10:26:43;;;;;;;;;;;15.80;99.90;;;;;;1930353;73;21063;-91
2023/04/18 10:29:49;;;;;;;3.95;2.62;;;15.80;99.90;;;;;;1917114;75;20491;-91
2023/04/18 10:32:41;;;;;;;3.90;3.00;;;15.90;99.90;;;;;;1927262;73;21722;-91
2023/04/18 10:35:35;;;;;;;3.10;2.30;;;16.00;99.90;;;;;;1918170;75;21096;-90
2023/04/18 10:41:28;;;;;;;3.52;2.40;;;16.00;99.90;;;;;;1941806;72;22244;-93
2023/04/18 10:44:23;;;;;;;3.10;2.42;;;16.10;99.90;;;;;;1875391;75;21159;-92
2023/04/18 10:47:22;;;;;;;3.33;2.60;;;16.10;99.90;;;;;;1885517;75;21188;-92
2023/04/18 10:50:15;;;;;;;2.85;1.75;;;16.40;99.90;;;;;;1872541;76;21150;-92
2023/04/18 10:53:47;;;;;;;2.05;1.80;;;16.50;99.90;;;;;;1883868;75;21236;-94
2023/04/18 10:56:53;;;;;;;2.75;1.72;;;16.40;99.90;;;;;;1904870;75;21159;-91
2023/04/18 10:59:47;;;;;;;2.80;1.80;;;16.50;99.90;;;;;;1904720;75;21616;-90
2023/04/18 11:02:39;;;;;;;2.25;1.75;;;16.60;99.90;;;;;;1883616;75;21213;-92
2023/04/18 11:05:30;;;;;;;2.33;1.95;;;16.60;99.90;;;;;;1883056;75;21116;-91
2023/04/18 11:08:25;;;;;;;2.50;1.67;;;16.70;99.90;;;;;;1904471;75;21087;-90
2023/04/18 11:11:18;;;;;;;3.62;2.17;;;16.80;99.90;;;;;;1903278;75;21220;-91
2023/04/18 11:14:10;;;;;;;1.85;1.70;;;17.00;99.90;;;;;;1872611;76;21071;-91
2023/04/18 11:17:21;;;;;;;1.50;1.32;;;17.10;99.90;;;;;;1878991;75;21575;-90
2023/04/18 11:20:16;;;;;;;1.77;1.40;;;17.00;99.90;;;;;;1904867;75;21106;-91
2023/04/18 11:23:18;;;;;;;1.85;1.50;;;17.10;99.90;;;;;;1904539;75;21122;-93
2023/04/18 11:26:11;;;;;;;1.42;1.32;;;17.30;99.90;;;;;;1892307;75;21064;-92
2023/04/18 11:29:03;;;;;;;3.02;1.32;;;17.40;99.90;;;;;;1873072;76;21299;-91
2023/04/18 11:36:07;;;;;;;2.20;1.37;;;17.60;99.90;;;;;;2084999;68;22264;-93
2023/04/18 11:38:58;;;;;;;2.37;1.80;;;17.50;99.90;;;;;;2035496;70;21186;-93
2023/04/18 11:41:50;;;;;;;4.05;2.00;;;17.40;99.90;;;;;;2035742;70;21582;-93
2023/04/18 11:44:43;;;;;;;2.40;2.02;;;17.10;99.90;;;;;;2031407;70;21350;-91
2023/04/18 11:47:37;;;;;;;3.12;1.90;;;17.10;99.90;;;;;;2026241;70;21147;-93
2023/04/18 11:50:29;;;;;;;3.05;2.27;;;17.10;99.90;;;;;;2035412;70;21147;-91
2023/04/18 11:53:36;;;;;;;2.77;2.17;;;17.30;99.90;;;;;;2013662;70;21071;-90
2023/04/18 11:56:28;;;;;;;4.13;2.40;;;17.30;99.90;;;;;;2012443;70;21028;-90
2023/04/18 11:59:20;;;;;;;4.60;2.33;;;17.40;99.90;;;;;;2003118;70;21082;-91
2023/04/18 12:02:12;;;;;;;2.95;2.30;;;17.30;99.90;;;;;;2000865;70;21058;-90
2023/04/18 12:05:06;;;;;;;2.58;1.95;;;17.20;99.90;;;;;;2013167;70;21115;-90
2023/04/18 12:08:08;;;;;;;2.92;2.35;;;17.40;99.90;;;;;;1970980;72;21038;-90
2023/04/18 12:11:00;;;;;;;3.85;2.08;;;17.50;99.90;;;;;;1998606;72;21131;-91
2023/04/18 12:13:53;;;;;;;8.80;2.30;;;17.60;99.90;;;;;;2023185;70;21070;-92
2023/04/18 12:16:46;;;;;;;2.92;2.60;;;17.60;99.90;;;;;;1980896;72;21082;-90
2023/04/18 12:19:40;;;;;;;3.52;2.30;;;17.50;99.90;;;;;;2034826;70;21159;-90
2023/04/18 12:22:45;;;;;;;2.33;2.12;;;17.50;99.90;;;;;;2035749;70;21086;-90
2023/04/18 12:25:37;;;;;;;3.35;2.33;;;17.60;99.90;;;;;;2011487;70;21055;-89
2023/04/18 12:28:29;;;;;;;2.72;1.92;;;17.80;99.90;;;;;;2003409;70;21149;-90
2023/04/18 12:31:27;;;;;;;3.15;1.80;;;17.80;99.90;;;;;;1998243;72;21132;-89
2023/04/18 12:34:21;;;;;;;3.22;2.20;;;17.70;99.90;;;;;;2021921;70;21115;-89
2023/04/18 12:37:12;;;;;;;2.27;2.08;;;17.70;99.90;;;;;;2016036;70;21027;-91
2023/04/18 12:40:06;;;;;;;4.25;2.30;;;17.80;99.90;;;;;;2023712;70;21077;-90
2023/04/18 12:42:58;;;;;;;2.20;1.98;;;17.70;99.90;;;;;;2023056;70;21118;-89
2023/04/18 12:45:51;;;;;;;2.75;1.98;;;17.80;99.90;;;;;;2023004;70;21027;-90
2023/04/18 12:48:42;;;;;;;3.20;2.17;;;17.90;99.90;;;;;;2017747;70;21059;-89
2023/04/18 12:51:34;;;;;;;2.72;2.30;;;17.80;99.90;;;;;;2021078;70;21127;-89
2023/04/18 12:54:28;;;;;;;2.92;2.10;;;17.90;99.90;;;;;;1997282;72;21070;-90
2023/04/18 12:57:19;;;;;;;2.40;2.10;;;17.80;99.90;;;;;;2022171;70;21159;-90
2023/04/18 13:00:13;;;;;;;3.27;2.20;;;17.70;99.90;;;;;;1975594;72;21185;-90
2023/04/18 13:03:06;;;;;;;3.45;2.10;;;17.80;99.90;;;;;;2018209;70;21097;-89
2023/04/18 13:06:00;;;;;;;3.27;2.35;;;18.00;99.90;;;;;;2023018;70;21080;-90
2023/04/18 13:08:53;;;;;;;1.85;1.60;;;17.90;99.90;;;;;;2003394;70;21038;-90
2023/04/18 13:11:45;;;;;;;3.27;2.58;;;17.90;99.90;;;;;;2034388;70;21059;-90
2023/04/18 13:18:12;;;;;;;2.55;2.30;;;17.90;99.90;;;;;;1997023;72;21149;-91
2023/04/18 13:21:13;;;;;;;4.58;3.02;;;17.90;99.90;;;;;;2018016;70;21035;-90
2023/04/18 13:24:23;;;;;;;3.90;2.00;;;17.90;99.90;;;;;;2013815;70;21061;-91
2023/04/18 13:27:15;;;;;;;2.50;2.10;;;18.10;99.90;;;;;;2012321;70;21089;-88
2023/04/18 13:30:14;;;;;;;4.95;3.37;;;18.10;99.90;;;;;;2033595;70;21070;-91
2023/04/18 13:33:16;;;;;;;;;;;18.40;99.90;;;;;;2005222;70;21166;-86
2023/04/18 13:36:10;;;;;;;1.90;1.72;;;18.30;99.90;;;;;;1997262;71;20146;-89
2023/04/18 13:39:04;;;;;;;2.47;2.00;;;18.40;99.90;;;;;;1997288;72;21811;-89
2023/04/18 13:41:56;;;;;;;2.67;1.87;;;18.40;99.90;;;;;;1956643;72;21043;-90
2023/04/18 13:44:48;;;;;;;3.12;2.67;;;18.40;99.90;;;;;;1932522;73;21163;-90
2023/04/18 13:47:40;;;;;;;2.20;1.82;;;18.40;99.90;;;;;;2013635;71;21110;-90
2023/04/18 13:50:32;;;;;;;4.37;2.12;;;18.40;99.90;;;;;;2008032;71;21067;-90
2023/04/18 13:53:23;;;;;;;3.40;2.02;;;18.30;99.90;;;;;;2003166;71;21158;-87
2023/04/18 13:56:15;;;;;;;2.80;2.50;;;18.30;99.90;;;;;;1995448;71;21059;-90
2023/04/18 13:59:07;;;;;;;3.20;2.20;;;18.20;99.90;;;;;;2023444;71;21485;-89
2023/04/18 14:01:58;;;;;;;2.15;1.95;;;18.20;99.90;;;;;;1997432;71;21174;-91
2023/04/18 14:04:53;;;;;;;2.75;1.98;;;18.10;99.90;;;;;;1943534;74;21248;-88
2023/04/18 14:07:47;;;;;;;2.52;2.15;;;18.20;99.90;;;;;;1988827;72;21101;-88
2023/04/18 14:10:39;;;;;;;3.27;2.30;;;18.00;99.90;;;;;;2011736;71;21063;-90
2023/04/18 14:13:31;;;;;;;3.27;2.67;;;18.00;99.90;;;;;;1967852;72;21065;-90
2023/04/18 14:16:22;;;;;;;5.78;2.58;;;18.80;99.90;;;;;;2009250;71;21209;-87
2023/04/18 14:19:19;;;;;;;3.12;2.33;;;19.20;99.90;;;;;;2008012;71;21027;-89
2023/04/18 14:22:11;;;;;;;4.22;2.40;;;19.70;99.90;;;;;;1977812;72;21131;-90
2023/04/18 14:25:02;;;;;;;4.17;2.25;;;19.70;99.90;;;;;;1999686;71;21020;-88
2023/04/18 14:28:04;;;;;;;4.92;1.95;;;19.90;99.90;;;;;;2023424;71;21260;-88
2023/04/18 14:30:56;;;;;;;4.95;2.30;;;20.20;99.90;;;;;;1943918;74;21067;-87
2023/04/18 14:33:49;;;;;;;2.35;1.55;;;20.20;99.90;;;;;;2002982;71;21144;-90
2023/04/18 14:36:40;;;;;;;1.10;1.00;;;20.70;99.90;;;;;;1989876;71;21090;-89
2023/04/18 14:39:31;;;;;;;2.47;1.17;;;20.90;99.90;;;;;;1965598;72;21078;-88
2023/04/18 14:42:27;;;;;;;3.30;1.20;;;20.60;99.90;;;;;;1947197;73;21081;-89
2023/04/18 14:45:19;;;;;;;3.25;1.80;;;20.40;99.90;;;;;;1940839;73;21184;-88
2023/04/18 14:48:12;;;;;;;2.42;1.72;;;20.50;99.90;;;;;;1936850;73;21029;-87
2023/04/18 14:51:03;;;;;;;1.65;1.40;;;20.70;99.90;;;;;;1935429;73;21130;-86
2023/04/18 14:53:57;;;;;;;3.55;1.60;;;20.80;99.90;;;;;;1934004;73;21091;-87
2023/04/18 14:56:50;;;;;;;1.25;1.10;;;21.10;99.90;;;;;;1938308;73;21090;-88
2023/04/18 14:59:42;;;;;;;2.50;1.22;;;21.50;99.90;;;;;;1999377;71;21488;-87
2023/04/18 15:02:33;;;;;;;2.00;1.27;;;21.80;99.90;;;;;;1995239;71;21086;-86
2023/04/18 15:05:33;;;;;;;1.72;1.30;;;21.30;99.90;;;;;;1992013;71;21141;-88
2023/04/18 15:08:25;;;;;;;2.02;1.12;;;21.00;99.90;;;;;;2007639;71;21071;-87
2023/04/18 15:11:16;;;;;;;1.40;1.00;;;21.20;99.90;;;;;;2001994;71;21153;-89
2023/04/18 15:14:10;;;;;;;1.10;1.00;;;20.90;99.90;;;;;;1984084;72;21498;-89
2023/04/18 15:17:02;;;;;;;0.90;0.90;;;20.30;99.90;;;;;;2008396;71;21044;-89
2023/04/18 15:19:54;;;;;;;1.00;0.80;;;19.70;99.90;;;;;;1986067;71;21151;-88
2023/04/18 15:22:45;;;;;;;1.92;0.90;;;19.50;99.90;;;;;;2020455;71;21294;-87
2023/04/18 15:25:37;;;;;;;1.20;1.10;;;19.40;99.90;;;;;;2020635;71;21035;-88
2023/04/18 15:28:29;;;;;;;1.10;0.60;;;19.40;99.90;;;;;;1995722;71;21075;-88
2023/04/18 15:31:22;;;;;;;1.22;0.82;;;19.10;99.90;;;;;;1995964;71;21181;-86
2023/04/18 15:34:19;;;;;;;1.15;0.75;;;18.90;99.90;;;;;;1998717;71;21716;-87
2023/04/18 15:37:11;;;;;;;1.00;0.80;;;18.70;99.90;;;;;;1983986;72;21131;-87
2023/04/18 15:40:10;;;;;;;0.82;0.80;;;18.50;99.90;;;;;;1996648;71;21059;-89
2023/04/18 15:43:01;;;;;;;1.07;0.90;;;18.50;99.90;;;;;;1995518;71;21136;-89
2023/04/18 15:45:53;;;;;;;1.67;0.78;;;18.40;99.90;;;;;;2020603;71;21098;-88
2023/04/18 15:48:45;;;;;;;1.72;0.95;;;18.20;99.90;;;;;;2000102;71;21126;-88
2023/04/18 15:51:36;;;;;;;2.25;0.93;;;18.10;99.90;;;;;;1998458;71;21144;-87
2023/04/18 15:54:28;;;;;;;0.70;0.70;;;18.10;99.90;;;;;;2012533;71;21066;-87
2023/04/18 15:57:20;;;;;;;1.62;0.80;;;17.90;99.90;;;;;;2008419;71;21165;-88
2023/04/18 16:00:15;;;;;;;1.22;0.98;;;17.90;99.90;;;;;;2003912;71;21096;-88
2023/04/18 16:03:16;;;;;;;1.02;0.93;;;17.80;99.90;;;;;;2002712;71;21385;-88
2023/04/18 16:06:08;;;;;;;1.22;0.88;;;17.70;99.90;;;;;;2020447;71;21026;-89
2023/04/18 16:09:00;;;;;;;1.45;1.10;;;17.50;99.90;;;;;;1996489;71;21071;-88
2023/04/18 16:11:51;;;;;;;1.10;0.95;;;17.20;99.90;;;;;;1994125;71;21606;-88
2023/04/18 16:14:42;;;;;;;0.72;0.57;;;16.70;99.90;;;;;;2006664;71;21105;-88
2023/04/18 16:17:36;;;;;;;1.22;0.50;;;16.20;99.90;;;;;;2020815;71;21024;-87
2023/04/18 16:20:28;;;;;;;2.75;0.70;;;15.90;99.90;;;;;;2011504;71;21144;-88
2023/04/18 16:23:20;;;;;;;2.77;0.80;;;15.80;99.90;;;;;;1983875;72;22159;-87
2023/04/18 16:26:11;;;;;;;0.70;0.35;;;15.70;99.90;;;;;;1962301;72;21027;-88
2023/04/18 16:29:05;;;;;;;0.70;0.50;;;15.50;99.90;;;;;;1942862;73;21100;-88
2023/04/18 16:31:57;;;;;;;1.25;0.60;;;15.40;99.90;;;;;;1924150;74;21095;-88
2023/04/18 16:34:49;;;;;;;0.93;0.70;;;15.20;99.90;;;;;;1941146;73;21215;-88
2023/04/18 16:37:41;;;;;;;2.80;0.98;;;15.20;99.90;;;;;;1940950;73;21090;-88
2023/04/18 16:40:33;;;;;;;2.05;1.00;;;15.00;99.90;;;;;;1930151;74;21122;-88
2023/04/18 16:43:26;;;;;;;2.05;0.80;;;15.00;99.90;;;;;;1949942;73;21205;-88
2023/04/18 16:46:18;;;;;;;1.47;0.95;;;14.90;99.90;;;;;;1940158;73;21051;-87
2023/04/18 16:49:13;;;;;;;2.45;1.17;;;15.00;99.90;;;;;;1934228;74;21886;-87
2023/04/18 16:52:05;;;;;;;1.42;1.00;;;15.00;99.90;;;;;;1965245;72;21102;-89
2023/04/18 16:54:57;;;;;;;2.62;1.20;;;15.00;99.90;;;;;;1950021;73;21058;-88
2023/04/18 16:57:48;;;;;;;4.65;1.32;;;15.10;99.90;;;;;;1943517;73;21193;-88
2023/04/18 17:00:40;;;;;;;1.87;1.20;;;15.20;99.90;;;;;;1955207;72;21093;-87
2023/04/18 17:03:31;;;;;;;2.05;1.07;;;15.20;99.90;;;;;;1942945;73;21098;-87
2023/04/18 17:06:23;;;;;;;1.27;1.00;;;15.30;99.90;;;;;;1931186;74;21099;-87
2023/04/18 17:09:15;;;;;;;0.75;0.75;;;15.40;99.90;;;;;;1932901;73;21659;-88
2023/04/18 17:12:10;;;;;;;1.50;0.93;;;15.40;99.90;;;;;;1933557;73;21151;-87
2023/04/18 17:15:02;;;;;;;1.17;0.88;;;15.50;99.90;;;;;;1933303;73;21102;-88
2023/04/18 17:17:58;;;;;;;1.77;1.10;;;15.50;99.90;;;;;;1951630;73;21562;-88
2023/04/18 17:20:49;;;;;;;0.78;0.78;;;15.50;99.90;;;;;;1936554;74;21176;-88
2023/04/18 17:23:41;;;;;;;3.08;1.10;;;15.60;99.90;;;;;;1950020;73;21156;-88
2023/04/18 17:26:33;;;;;;;1.00;0.90;;;15.50;99.90;;;;;;1929490;73;21133;-88
2023/04/18 17:29:24;;;;;;;1.10;0.75;;;15.60;99.90;;;;;;1923243;74;21090;-88
2023/04/18 17:32:27;;;;;;;1.02;0.80;;;15.60;99.90;;;;;;1923556;73;21572;-88
2023/04/18 17:35:19;;;;;;;1.67;1.10;;;15.60;99.90;;;;;;1945746;73;21100;-87
2023/04/18 17:38:12;;;;;;;1.52;1.00;;;15.60;99.90;;;;;;1923771;74;21168;-87
2023/04/18 17:41:04;;;;;;;1.60;1.40;;;15.50;99.90;;;;;;1951725;73;21133;-89
2023/04/18 17:43:56;;;;;;;1.65;1.12;;;15.40;99.90;;;;;;2027780;71;21117;-89
2023/04/18 17:46:48;;;;;;;1.85;1.20;;;15.40;99.90;;;;;;2024057;71;21067;-90
2023/04/18 17:49:40;;;;;;;1.35;1.00;;;15.40;99.90;;;;;;2011034;71;21095;-89
2023/04/18 17:52:32;;;;;;;1.52;1.20;;;15.40;99.90;;;;;;1944536;72;21106;-90
2023/04/18 17:55:25;;;;;;;2.22;1.50;;;15.40;99.90;;;;;;1937495;73;21100;-89
2023/04/18 17:58:17;;;;;;;2.87;1.70;;;15.40;99.90;;;;;;1924303;74;21798;-90
2023/04/18 18:01:16;;;;;;;2.95;1.42;;;15.40;99.90;;;;;;1948193;73;21127;-90
2023/04/18 18:04:07;;;;;;;1.42;1.20;;;15.40;99.90;;;;;;1996888;71;21028;-89
2023/04/18 18:07:03;;;;;;;1.70;1.57;;;15.30;99.90;;;;;;2007029;71;21587;-90